Time;durP1;ratioP1;P1;durP2;ratioP2;P2;SDS_P1;SDS_P2;PMS_P1;PMS_P2;Temp;Humidity;BMP_temperature;BMP_pressure;BME280_temperature;BME280_humidity;BME280_pressure;Samples;Min_cycle;Max_cycle;Signal;HPM_P1;HPM_P2
2023/12/14 00:00:28;;;;;;;1.48;0.90;;;4.10;99.90;;;;;;5135933;27;20039;-78
2023/12/14 00:02:54;;;;;;;0.68;0.68;;;4.40;99.90;;;;;;5134197;27;20173;-77
2023/12/14 00:05:20;;;;;;;5.85;5.40;;;4.30;99.90;;;;;;5135366;27;20428;-80
2023/12/14 00:07:45;;;;;;;0.68;0.68;;;4.10;99.90;;;;;;5130452;27;20035;-79
2023/12/14 00:10:12;;;;;;;0.40;0.40;;;4.10;99.90;;;;;;5129115;27;20133;-80
2023/12/14 00:12:38;;;;;;;0.50;0.50;;;4.10;99.90;;;;;;5111653;27;20432;-79
2023/12/14 00:15:04;;;;;;;0.88;0.88;;;4.00;99.90;;;;;;5116047;27;20491;-77
2023/12/14 00:17:30;;;;;;;1.10;0.75;;;4.10;99.90;;;;;;5104377;27;20107;-80
2023/12/14 00:19:56;;;;;;;0.60;0.60;;;4.00;99.90;;;;;;5130150;27;20168;-77
2023/12/14 00:22:21;;;;;;;0.55;0.55;;;4.10;99.90;;;;;;5134959;27;20046;-76
2023/12/14 00:24:47;;;;;;;0.50;0.50;;;4.00;99.90;;;;;;5125290;27;20038;-76
2023/12/14 00:27:13;;;;;;;0.65;0.65;;;4.00;99.90;;;;;;5118668;27;20043;-78
2023/12/14 00:29:38;;;;;;;0.60;0.60;;;4.00;99.90;;;;;;5117515;27;20050;-75
2023/12/14 00:32:04;;;;;;;0.90;0.90;;;4.00;99.90;;;;;;5119969;27;20085;-76
2023/12/14 00:34:30;;;;;;;;;;;4.00;99.90;;;;;;5124648;27;20039;-81
2023/12/14 00:36:56;;;;;;;0.70;0.70;;;4.00;99.90;;;;;;5108983;27;19946;-76
2023/12/14 00:39:21;;;;;;;0.75;0.75;;;4.00;99.90;;;;;;5128478;27;20087;-75
2023/12/14 00:41:47;;;;;;;0.68;0.68;;;4.10;99.90;;;;;;5128853;27;20039;-78
2023/12/14 00:44:13;;;;;;;0.85;0.82;;;4.00;99.90;;;;;;5129112;27;20035;-76
2023/12/14 00:46:38;;;;;;;0.70;0.70;;;4.10;99.90;;;;;;5112844;27;20070;-79
2023/12/14 00:49:04;;;;;;;0.55;0.55;;;4.00;99.90;;;;;;5112900;27;20547;-80
2023/12/14 00:51:30;;;;;;;0.60;0.60;;;4.00;99.90;;;;;;5111314;27;20415;-78
2023/12/14 00:53:55;;;;;;;0.75;0.75;;;4.00;99.90;;;;;;5110359;27;20050;-75
2023/12/14 00:56:21;;;;;;;0.70;0.70;;;4.00;99.90;;;;;;5134127;27;20079;-78
2023/12/14 00:58:47;;;;;;;0.60;0.60;;;4.00;99.90;;;;;;5128733;27;20089;-78
2023/12/14 01:01:12;;;;;;;0.50;0.50;;;4.00;99.90;;;;;;5112588;27;20035;-78
2023/12/14 01:03:38;;;;;;;0.50;0.50;;;4.00;99.90;;;;;;5113356;27;20440;-77
2023/12/14 01:06:04;;;;;;;0.57;0.57;;;4.00;99.90;;;;;;5127224;27;20043;-76
2023/12/14 01:08:30;;;;;;;0.70;0.70;;;4.00;99.90;;;;;;5111501;27;20039;-78
2023/12/14 01:10:56;;;;;;;0.50;0.50;;;4.00;99.90;;;;;;5129523;27;20519;-78
2023/12/14 01:13:21;;;;;;;0.50;0.50;;;4.00;99.90;;;;;;5124845;27;20492;-79
2023/12/14 01:15:47;;;;;;;0.93;0.93;;;4.00;99.90;;;;;;5128341;27;20039;-76
2023/12/14 01:18:13;;;;;;;0.47;0.47;;;4.00;99.90;;;;;;5130311;27;20180;-77
2023/12/14 01:20:39;;;;;;;0.52;0.52;;;4.00;99.90;;;;;;5128308;27;20118;-80
2023/12/14 01:23:05;;;;;;;0.70;0.70;;;4.00;99.90;;;;;;5129140;27;20054;-81
2023/12/14 01:25:30;;;;;;;0.50;0.50;;;3.90;99.90;;;;;;5131549;27;20498;-76
2023/12/14 01:27:56;;;;;;;1.25;1.25;;;4.00;99.90;;;;;;5132327;27;20352;-76
2023/12/14 01:30:22;;;;;;;0.60;0.60;;;4.00;99.90;;;;;;5114210;27;20165;-75
2023/12/14 01:32:47;;;;;;;3.40;1.02;;;4.00;99.90;;;;;;5128370;27;20073;-81
2023/12/14 01:35:13;;;;;;;0.50;0.50;;;3.90;99.90;;;;;;5132325;27;20038;-75
2023/12/14 01:37:38;;;;;;;1.40;0.85;;;4.00;99.90;;;;;;5112521;27;20122;-79
2023/12/14 01:40:06;;;;;;;0.70;0.70;;;4.00;99.90;;;;;;5132701;27;20050;-76
2023/12/14 01:42:31;;;;;;;0.40;0.40;;;4.00;99.90;;;;;;5110060;27;20118;-79
2023/12/14 01:44:57;;;;;;;0.47;0.47;;;4.00;99.90;;;;;;5126011;27;20122;-80
2023/12/14 01:47:23;;;;;;;1.83;1.83;;;4.00;99.90;;;;;;5086819;27;20039;-77
2023/12/14 01:49:49;;;;;;;0.50;0.50;;;4.00;99.90;;;;;;5110294;27;20047;-80
2023/12/14 01:52:14;;;;;;;0.52;0.52;;;4.00;99.90;;;;;;5126949;27;20514;-80
2023/12/14 01:54:40;;;;;;;0.50;0.50;;;4.00;99.90;;;;;;5126990;27;20054;-80
2023/12/14 01:57:06;;;;;;;0.60;0.60;;;4.00;99.90;;;;;;5110334;27;20146;-77
2023/12/14 01:59:31;;;;;;;0.70;0.70;;;4.00;99.90;;;;;;5117898;27;20540;-76
2023/12/14 02:01:57;;;;;;;0.63;0.63;;;4.00;99.90;;;;;;5131804;27;20043;-82
2023/12/14 02:04:25;;;;;;;0.75;0.75;;;4.00;99.90;;;;;;5099476;27;20046;-80
2023/12/14 02:06:51;;;;;;;0.60;0.60;;;4.00;99.90;;;;;;5127913;27;20079;-77
2023/12/14 02:09:16;;;;;;;1.38;1.38;;;4.00;99.90;;;;;;5129228;27;20043;-81
2023/12/14 02:11:42;;;;;;;0.65;0.65;;;4.30;99.90;;;;;;5114236;27;20095;-77
2023/12/14 02:14:12;;;;;;;0.50;0.50;;;4.00;99.90;;;;;;5129752;27;20125;-75
2023/12/14 02:16:40;;;;;;;0.50;0.50;;;4.00;99.90;;;;;;5129135;27;20100;-78
2023/12/14 02:19:06;;;;;;;0.50;0.50;;;4.00;99.90;;;;;;5129474;27;20051;-76
2023/12/14 02:21:31;;;;;;;0.55;0.55;;;4.00;99.90;;;;;;5131789;27;20053;-75
2023/12/14 02:23:57;;;;;;;1.55;1.45;;;4.00;99.90;;;;;;5109491;27;20043;-76
2023/12/14 02:26:23;;;;;;;0.60;0.60;;;4.00;99.90;;;;;;5128057;27;20442;-76
2023/12/14 02:28:48;;;;;;;0.57;0.57;;;4.00;99.90;;;;;;5126600;28;20226;-77
2023/12/14 02:31:14;;;;;;;0.60;0.60;;;4.00;99.90;;;;;;5129916;27;20047;-75
2023/12/14 02:33:40;;;;;;;0.60;0.60;;;4.00;99.90;;;;;;5127233;27;20043;-79
2023/12/14 02:36:06;;;;;;;0.73;0.73;;;4.00;99.90;;;;;;5126592;27;20042;-77
2023/12/14 02:38:32;;;;;;;1.05;1.05;;;4.00;99.90;;;;;;5130378;27;20039;-78
2023/12/14 02:40:57;;;;;;;0.60;0.60;;;3.90;99.90;;;;;;5128080;27;20506;-77
2023/12/14 02:43:23;;;;;;;0.60;0.60;;;4.00;99.90;;;;;;5111181;27;20117;-76
2023/12/14 02:45:49;;;;;;;0.60;0.60;;;3.90;99.90;;;;;;5113136;28;20087;-80
2023/12/14 02:48:15;;;;;;;;;;;4.00;99.90;;;;;;5128131;27;20074;-80
2023/12/14 02:50:41;;;;;;;0.60;0.60;;;4.00;99.90;;;;;;5130772;27;19977;-78
2023/12/14 02:53:06;;;;;;;0.47;0.47;;;4.00;99.90;;;;;;5133443;27;20108;-82
2023/12/14 02:55:32;;;;;;;0.70;0.70;;;4.00;99.90;;;;;;5139009;27;20043;-77
2023/12/14 02:57:58;;;;;;;0.52;0.52;;;4.00;99.90;;;;;;5132513;27;20065;-81
2023/12/14 03:00:24;;;;;;;0.50;0.50;;;3.90;99.90;;;;;;5118816;27;20506;-78
2023/12/14 03:02:49;;;;;;;0.70;0.70;;;4.00;99.90;;;;;;5135427;27;20043;-77
2023/12/14 03:05:15;;;;;;;0.50;0.50;;;4.10;99.90;;;;;;5119381;27;20053;-75
2023/12/14 03:07:41;;;;;;;0.45;0.45;;;4.00;99.90;;;;;;5135112;27;20047;-79
2023/12/14 03:10:07;;;;;;;0.52;0.52;;;4.00;99.90;;;;;;5134422;27;20158;-79
2023/12/14 03:12:33;;;;;;;0.68;0.68;;;4.00;99.90;;;;;;5133777;27;20050;-76
2023/12/14 03:14:59;;;;;;;0.47;0.47;;;4.00;99.90;;;;;;5132016;27;20039;-80
2023/12/14 03:17:24;;;;;;;0.70;0.70;;;4.00;99.90;;;;;;5112402;27;20194;-80
2023/12/14 03:19:50;;;;;;;0.50;0.50;;;4.00;99.90;;;;;;5094453;27;20049;-81
2023/12/14 03:22:16;;;;;;;0.50;0.50;;;4.00;99.90;;;;;;5112377;27;20027;-77
2023/12/14 03:24:42;;;;;;;0.60;0.60;;;4.00;99.90;;;;;;5103839;27;20035;-78
2023/12/14 03:27:08;;;;;;;;;;;3.90;99.90;;;;;;5114493;27;20039;-76
2023/12/14 03:29:34;;;;;;;0.90;0.90;;;4.00;99.90;;;;;;5132894;27;19919;-79
2023/12/14 03:32:00;;;;;;;0.68;0.68;;;4.00;99.90;;;;;;5132210;27;20035;-80
2023/12/14 03:34:26;;;;;;;0.60;0.60;;;4.00;99.90;;;;;;5131804;27;20031;-78
2023/12/14 03:36:52;;;;;;;0.57;0.57;;;4.00;99.90;;;;;;5130991;27;20091;-77
2023/12/14 03:39:18;;;;;;;0.60;0.60;;;4.30;99.90;;;;;;5131583;27;20058;-76
2023/12/14 03:41:44;;;;;;;0.60;0.60;;;4.40;99.90;;;;;;5133118;27;20135;-79
2023/12/14 03:44:10;;;;;;;0.60;0.60;;;4.10;99.90;;;;;;5131359;27;20057;-75
2023/12/14 03:46:36;;;;;;;0.60;0.60;;;4.00;99.90;;;;;;5130377;27;20031;-79
2023/12/14 03:49:03;;;;;;;0.60;0.60;;;4.00;99.90;;;;;;5129127;27;20146;-79
2023/12/14 03:51:29;;;;;;;0.52;0.52;;;4.00;99.90;;;;;;5108385;27;20043;-78
2023/12/14 03:53:54;;;;;;;0.52;0.52;;;4.00;99.90;;;;;;5116757;27;20099;-75
2023/12/14 03:56:20;;;;;;;0.70;0.70;;;3.90;99.90;;;;;;5109169;27;20038;-80
2023/12/14 03:58:46;;;;;;;0.50;0.50;;;3.90;99.90;;;;;;5129999;27;20114;-78
2023/12/14 04:01:19;;;;;;;0.50;0.50;;;4.40;99.90;;;;;;5114737;27;20757;-78
2023/12/14 04:03:45;;;;;;;0.63;0.63;;;4.00;99.90;;;;;;5133780;27;20043;-78
2023/12/14 04:06:11;;;;;;;0.60;0.60;;;3.90;99.90;;;;;;5133166;27;20043;-80
2023/12/14 04:08:37;;;;;;;0.60;0.60;;;4.00;99.90;;;;;;5129856;27;20055;-80
2023/12/14 04:11:03;;;;;;;;;;;3.90;99.90;;;;;;5132439;27;20031;-78
2023/12/14 04:13:29;;;;;;;0.55;0.55;;;3.90;99.90;;;;;;5132794;27;19919;-81
2023/12/14 04:15:54;;;;;;;0.65;0.65;;;3.90;99.90;;;;;;5113709;27;20043;-79
2023/12/14 04:18:20;;;;;;;0.88;0.82;;;3.90;99.90;;;;;;5130240;27;20050;-80
2023/12/14 04:20:46;;;;;;;0.90;0.60;;;3.90;99.90;;;;;;5132348;27;20038;-78
2023/12/14 04:23:11;;;;;;;0.50;0.50;;;3.90;99.90;;;;;;5132920;27;20067;-76
2023/12/14 04:25:37;;;;;;;0.70;0.70;;;3.90;99.90;;;;;;5134495;27;20471;-79
2023/12/14 04:28:03;;;;;;;0.47;0.47;;;3.90;99.90;;;;;;5129531;27;20472;-76
2023/12/14 04:30:29;;;;;;;0.60;0.60;;;3.90;99.90;;;;;;5112372;27;20053;-77
2023/12/14 04:32:54;;;;;;;0.95;0.95;;;3.90;99.90;;;;;;5129547;27;20054;-80
2023/12/14 04:35:22;;;;;;;1.05;1.05;;;3.90;99.90;;;;;;5129274;27;20049;-76
2023/12/14 04:37:48;;;;;;;0.55;0.55;;;3.90;99.90;;;;;;5100101;27;20450;-80
2023/12/14 04:40:13;;;;;;;0.93;0.93;;;3.90;99.90;;;;;;5129602;27;20453;-82
2023/12/14 04:42:39;;;;;;;1.48;1.40;;;3.90;99.90;;;;;;5127585;27;20043;-78
2023/12/14 04:45:06;;;;;;;0.65;0.65;;;4.00;99.90;;;;;;5129604;27;20039;-78
2023/12/14 04:47:35;;;;;;;0.50;0.50;;;3.90;99.90;;;;;;5131284;27;20037;-79
2023/12/14 04:50:01;;;;;;;0.60;0.60;;;3.90;99.90;;;;;;5110875;27;20046;-76
2023/12/14 04:52:27;;;;;;;0.50;0.50;;;3.90;99.90;;;;;;5112067;27;20126;-76
2023/12/14 04:54:53;;;;;;;0.55;0.55;;;4.10;99.90;;;;;;5129012;27;20441;-77
2023/12/14 04:57:18;;;;;;;0.60;0.60;;;3.90;99.90;;;;;;5109946;27;20043;-79
2023/12/14 04:59:44;;;;;;;0.82;0.82;;;3.90;99.90;;;;;;5129861;27;20047;-80
2023/12/14 05:02:10;;;;;;;0.65;0.65;;;3.90;99.90;;;;;;5130692;27;20050;-76
2023/12/14 05:04:35;;;;;;;0.50;0.50;;;3.90;99.90;;;;;;5111433;27;20035;-77
2023/12/14 05:07:01;;;;;;;0.60;0.60;;;3.90;99.90;;;;;;5128555;27;20042;-79
2023/12/14 05:09:27;;;;;;;1.10;0.70;;;4.10;99.90;;;;;;5128721;27;20039;-76
2023/12/14 05:11:53;;;;;;;0.60;0.60;;;3.90;99.90;;;;;;5109424;27;20043;-79
2023/12/14 05:14:19;;;;;;;0.60;0.60;;;3.90;99.90;;;;;;5112117;27;20156;-81
2023/12/14 05:16:45;;;;;;;0.80;0.80;;;3.80;99.90;;;;;;5112470;27;20146;-76
2023/12/14 05:19:12;;;;;;;0.60;0.60;;;3.90;99.90;;;;;;5127182;27;20057;-78
2023/12/14 05:21:38;;;;;;;0.50;0.50;;;3.90;99.90;;;;;;5128136;27;20037;-80
2023/12/14 05:24:04;;;;;;;0.60;0.60;;;4.30;99.90;;;;;;5110741;27;20400;-75
2023/12/14 05:26:29;;;;;;;0.50;0.50;;;3.90;99.90;;;;;;5128883;27;20039;-81
2023/12/14 05:28:55;;;;;;;0.65;0.65;;;3.90;99.90;;;;;;5129488;27;20039;-79
2023/12/14 05:31:21;;;;;;;0.60;0.60;;;3.90;99.90;;;;;;5127810;27;20063;-79
2023/12/14 05:33:47;;;;;;;0.50;0.50;;;3.90;99.90;;;;;;5128819;27;20118;-75
2023/12/14 05:36:12;;;;;;;0.30;0.30;;;3.90;99.90;;;;;;5094512;27;20046;-81
2023/12/14 05:38:39;;;;;;;0.70;0.70;;;3.90;99.90;;;;;;5129367;27;20080;-78
2023/12/14 05:41:05;;;;;;;0.57;0.57;;;3.90;99.90;;;;;;5112067;27;20511;-80
2023/12/14 05:43:31;;;;;;;0.50;0.50;;;3.90;99.90;;;;;;5127893;27;20023;-81
2023/12/14 05:45:57;;;;;;;0.90;0.90;;;3.90;99.90;;;;;;5130967;27;20039;-81
2023/12/14 05:48:23;;;;;;;;;;;3.90;99.90;;;;;;5111903;27;20069;-79
2023/12/14 05:50:51;;;;;;;0.60;0.60;;;3.90;99.90;;;;;;5133264;27;19966;-78
2023/12/14 05:53:16;;;;;;;0.50;0.50;;;4.00;99.90;;;;;;5131652;27;20050;-76
2023/12/14 05:55:42;;;;;;;0.60;0.60;;;3.90;99.90;;;;;;5132771;27;20391;-77
2023/12/14 05:58:08;;;;;;;0.50;0.50;;;3.90;99.90;;;;;;5128828;27;20074;-79
2023/12/14 06:00:35;;;;;;;0.55;0.55;;;3.90;99.90;;;;;;5093609;27;20495;-77
2023/12/14 06:03:02;;;;;;;0.50;0.50;;;3.90;99.90;;;;;;5119441;27;20027;-76
2023/12/14 06:05:28;;;;;;;0.60;0.60;;;3.90;99.90;;;;;;5130566;27;20440;-74
2023/12/14 06:07:53;;;;;;;0.60;0.60;;;4.00;99.90;;;;;;5113629;27;20043;-80
2023/12/14 06:10:19;;;;;;;0.63;0.57;;;4.00;99.90;;;;;;5128570;27;20104;-76
2023/12/14 06:12:45;;;;;;;0.40;0.40;;;3.90;99.90;;;;;;5127719;27;20051;-77
2023/12/14 06:15:11;;;;;;;0.50;0.50;;;3.90;99.90;;;;;;5129181;27;20085;-79
2023/12/14 06:17:39;;;;;;;0.65;0.65;;;4.00;99.90;;;;;;5128487;27;20047;-80
2023/12/14 06:20:08;;;;;;;0.50;0.50;;;3.90;99.90;;;;;;5110055;28;20082;-77
2023/12/14 06:22:37;;;;;;;0.60;0.60;;;3.90;99.90;;;;;;5111263;27;20043;-76
2023/12/14 06:25:08;;;;;;;0.52;0.52;;;3.90;99.90;;;;;;5133446;27;20540;-76
2023/12/14 06:27:34;;;;;;;0.65;0.65;;;3.90;99.90;;;;;;5132917;27;20051;-77
2023/12/14 06:30:00;;;;;;;0.57;0.57;;;4.10;99.90;;;;;;5133790;27;20035;-78
2023/12/14 06:32:27;;;;;;;0.60;0.60;;;3.90;99.90;;;;;;5131969;27;20057;-78
2023/12/14 06:34:53;;;;;;;0.57;0.57;;;3.90;99.90;;;;;;5131733;27;20047;-80
2023/12/14 06:37:19;;;;;;;0.47;0.47;;;3.90;99.90;;;;;;5118759;27;20115;-79
2023/12/14 06:39:44;;;;;;;0.60;0.60;;;3.90;99.90;;;;;;5133486;27;20043;-75
2023/12/14 06:42:11;;;;;;;0.55;0.55;;;4.00;99.90;;;;;;5131024;27;20085;-75
2023/12/14 06:44:37;;;;;;;0.60;0.60;;;4.00;99.90;;;;;;5130796;27;20043;-79
2023/12/14 06:47:03;;;;;;;0.70;0.70;;;3.90;99.90;;;;;;5132651;27;20047;-79
2023/12/14 06:49:29;;;;;;;;;;;4.00;99.90;;;;;;5135970;27;20080;-80
2023/12/14 06:51:54;;;;;;;0.68;0.68;;;3.90;99.90;;;;;;5134015;27;20317;-79
2023/12/14 06:54:20;;;;;;;0.60;0.60;;;3.90;99.90;;;;;;5114218;27;20043;-79
2023/12/14 06:56:46;;;;;;;0.60;0.60;;;3.90;99.90;;;;;;5131039;27;20039;-78
2023/12/14 06:59:11;;;;;;;0.60;0.60;;;4.10;99.90;;;;;;5115767;27;20086;-77
2023/12/14 07:01:37;;;;;;;0.70;0.70;;;3.90;99.90;;;;;;5132954;27;20042;-74
2023/12/14 07:04:03;;;;;;;0.50;0.50;;;3.90;99.90;;;;;;5133643;27;20043;-80
2023/12/14 07:06:29;;;;;;;;;;;3.90;99.90;;;;;;5132322;27;20046;-78
2023/12/14 07:08:54;;;;;;;0.60;0.60;;;3.90;99.90;;;;;;5131397;27;19975;-80
2023/12/14 07:11:20;;;;;;;0.73;0.73;;;4.00;99.90;;;;;;5132592;27;20038;-79
2023/12/14 07:13:46;;;;;;;0.57;0.57;;;3.90;99.90;;;;;;5113724;27;20031;-77
2023/12/14 07:16:12;;;;;;;0.70;0.70;;;4.00;99.90;;;;;;5130960;27;20042;-80
2023/12/14 07:18:41;;;;;;;0.60;0.60;;;3.90;99.90;;;;;;5114211;27;20050;-80
2023/12/14 07:21:07;;;;;;;0.70;0.70;;;3.90;99.90;;;;;;5129891;27;20089;-80
2023/12/14 07:23:33;;;;;;;;;;;3.90;99.90;;;;;;5132860;27;20049;-79
2023/12/14 07:25:58;;;;;;;0.50;0.50;;;3.90;99.90;;;;;;5113584;27;19919;-77
2023/12/14 07:28:24;;;;;;;0.60;0.60;;;3.90;99.90;;;;;;5131612;27;20042;-76
2023/12/14 07:30:50;;;;;;;0.70;0.70;;;3.90;99.90;;;;;;5116694;27;20046;-76
2023/12/14 07:33:16;;;;;;;0.60;0.60;;;4.00;99.90;;;;;;5129576;27;20039;-77
2023/12/14 07:35:42;;;;;;;0.60;0.60;;;3.90;99.90;;;;;;5133171;27;20031;-74
2023/12/14 07:38:11;;;;;;;0.70;0.70;;;3.90;99.90;;;;;;5130003;27;20039;-76
2023/12/14 07:40:38;;;;;;;0.70;0.70;;;3.90;99.90;;;;;;5130636;27;20031;-77
2023/12/14 07:43:04;;;;;;;0.60;0.60;;;3.90;99.90;;;;;;5130445;27;20043;-77
2023/12/14 07:45:30;;;;;;;0.98;0.98;;;3.90;99.90;;;;;;5127420;27;20039;-78
2023/12/14 07:47:56;;;;;;;0.50;0.50;;;3.90;99.90;;;;;;5096418;27;20050;-79
2023/12/14 07:50:21;;;;;;;0.40;0.40;;;3.90;99.90;;;;;;5105279;27;20043;-80
2023/12/14 07:52:47;;;;;;;0.60;0.60;;;3.90;99.90;;;;;;5110569;27;20039;-78
2023/12/14 07:55:15;;;;;;;0.50;0.50;;;3.90;99.90;;;;;;5126058;27;20096;-76
2023/12/14 07:57:41;;;;;;;2.40;1.40;;;3.90;99.90;;;;;;5134779;27;20042;-78
2023/12/14 08:00:10;;;;;;;0.65;0.65;;;3.90;99.90;;;;;;5127267;27;20046;-79
2023/12/14 08:02:37;;;;;;;0.60;0.60;;;3.90;99.90;;;;;;5129624;27;20613;-77
2023/12/14 08:05:03;;;;;;;0.60;0.60;;;3.80;99.90;;;;;;5123618;27;20043;-77
2023/12/14 08:07:29;;;;;;;0.60;0.60;;;3.90;99.90;;;;;;5129961;27;20039;-77
2023/12/14 08:09:55;;;;;;;;;;;3.90;99.90;;;;;;5131450;27;20050;-74
2023/12/14 08:12:22;;;;;;;0.52;0.52;;;3.90;99.90;;;;;;5130458;27;19998;-80
2023/12/14 08:14:47;;;;;;;0.60;0.60;;;3.90;99.90;;;;;;5135416;27;20042;-75
2023/12/14 08:17:13;;;;;;;0.60;0.60;;;4.00;99.90;;;;;;5122901;27;20055;-77
2023/12/14 08:19:39;;;;;;;0.50;0.50;;;3.90;99.90;;;;;;5127556;27;20065;-80
2023/12/14 08:22:05;;;;;;;0.65;0.65;;;3.90;99.90;;;;;;5102379;27;20042;-77
2023/12/14 08:24:30;;;;;;;0.60;0.60;;;3.90;99.90;;;;;;5133381;27;20085;-77
2023/12/14 08:26:56;;;;;;;0.50;0.50;;;4.00;99.90;;;;;;5110338;27;20373;-74
2023/12/14 08:29:22;;;;;;;0.57;0.57;;;4.10;99.90;;;;;;5122209;27;20116;-76
2023/12/14 08:31:48;;;;;;;0.50;0.50;;;4.00;99.90;;;;;;5118577;27;20093;-78
2023/12/14 08:34:15;;;;;;;0.60;0.60;;;4.00;99.90;;;;;;5105531;27;20044;-79
2023/12/14 08:36:41;;;;;;;0.60;0.60;;;4.00;99.90;;;;;;5127857;27;20050;-78
2023/12/14 08:39:08;;;;;;;0.60;0.60;;;4.00;99.90;;;;;;5134765;27;20465;-76
2023/12/14 08:41:34;;;;;;;0.60;0.60;;;4.10;99.90;;;;;;5104534;27;20035;-73
2023/12/14 08:43:59;;;;;;;0.70;0.70;;;4.00;99.90;;;;;;5120337;27;20041;-77
2023/12/14 08:46:25;;;;;;;0.60;0.60;;;4.10;99.90;;;;;;5119260;27;20104;-77
2023/12/14 08:48:51;;;;;;;0.60;0.60;;;4.10;99.90;;;;;;5109203;27;20411;-78
2023/12/14 08:51:18;;;;;;;;;;;4.10;99.90;;;;;;5127402;27;20048;-78
2023/12/14 08:53:44;;;;;;;;;;;4.20;99.90;;;;;;5104876;27;19923;-78
2023/12/14 08:56:10;;;;;;;0.50;0.50;;;4.20;99.90;;;;;;5091582;27;19923;-77
2023/12/14 08:58:35;;;;;;;0.50;0.50;;;4.40;99.90;;;;;;5108476;27;20043;-78
2023/12/14 09:01:01;;;;;;;0.50;0.50;;;4.60;99.90;;;;;;5117385;27;20042;-78
2023/12/14 09:03:27;;;;;;;0.50;0.50;;;4.40;99.90;;;;;;5104666;27;20069;-75
2023/12/14 09:05:54;;;;;;;0.60;0.60;;;4.40;99.90;;;;;;5124959;27;20050;-77
2023/12/14 09:08:19;;;;;;;1.90;1.80;;;4.40;99.90;;;;;;5124915;27;20088;-77
2023/12/14 09:10:45;;;;;;;0.90;0.90;;;4.40;99.90;;;;;;5128674;27;20038;-75
2023/12/14 09:13:11;;;;;;;0.57;0.57;;;4.40;99.90;;;;;;5114218;27;20046;-76
2023/12/14 09:15:36;;;;;;;0.70;0.70;;;4.50;99.90;;;;;;5127414;27;20046;-78
2023/12/14 09:18:03;;;;;;;0.55;0.55;;;4.50;99.90;;;;;;5126106;27;20047;-77
2023/12/14 09:20:29;;;;;;;0.95;0.95;;;4.70;99.90;;;;;;5129233;27;20504;-80
2023/12/14 09:22:54;;;;;;;1.40;1.40;;;4.60;99.90;;;;;;5127233;27;20302;-79
2023/12/14 09:25:20;;;;;;;0.88;0.88;;;4.50;99.90;;;;;;5124274;27;20468;-79
2023/12/14 09:27:46;;;;;;;0.50;0.50;;;4.60;99.90;;;;;;5129114;27;20710;-77
2023/12/14 09:30:12;;;;;;;0.50;0.50;;;4.60;99.90;;;;;;5128725;27;20047;-80
2023/12/14 09:32:39;;;;;;;;;;;4.70;99.90;;;;;;5127145;27;20074;-76
2023/12/14 09:35:06;;;;;;;0.60;0.60;;;4.60;99.90;;;;;;5130247;27;19923;-74
2023/12/14 09:37:32;;;;;;;0.50;0.50;;;4.60;99.90;;;;;;5111275;27;20166;-77
2023/12/14 09:39:58;;;;;;;0.88;0.88;;;4.60;99.90;;;;;;5115635;27;20069;-79
2023/12/14 09:42:24;;;;;;;0.63;0.63;;;4.50;99.90;;;;;;5127438;27;20031;-77
2023/12/14 09:44:52;;;;;;;0.50;0.50;;;4.60;99.90;;;;;;5125317;27;20119;-79
2023/12/14 09:47:18;;;;;;;0.52;0.52;;;4.70;99.90;;;;;;5108000;28;20075;-78
2023/12/14 09:49:45;;;;;;;0.50;0.50;;;4.60;99.90;;;;;;5124301;27;20077;-81
2023/12/14 09:52:11;;;;;;;0.93;0.93;;;4.60;99.90;;;;;;5127300;27;20117;-77
2023/12/14 09:54:37;;;;;;;;;;;4.60;99.90;;;;;;5127942;27;20122;-76
2023/12/14 09:57:04;;;;;;;0.50;0.50;;;4.60;99.90;;;;;;5128138;27;19926;-78
2023/12/14 09:59:29;;;;;;;0.57;0.57;;;4.60;99.90;;;;;;5111599;27;20040;-77
2023/12/14 10:02:15;;;;;;;1.02;1.02;;;4.70;99.90;;;;;;5132488;27;20543;-77
2023/12/14 10:04:43;;;;;;;0.55;0.55;;;4.80;99.90;;;;;;5124780;27;20047;-77
2023/12/14 10:07:09;;;;;;;0.50;0.50;;;4.70;99.90;;;;;;5110969;28;20043;-79
2023/12/14 10:09:37;;;;;;;0.50;0.50;;;4.70;99.90;;;;;;5127890;27;20099;-76
2023/12/14 10:12:08;;;;;;;0.50;0.50;;;4.80;99.90;;;;;;5125193;27;20408;-80
2023/12/14 10:14:35;;;;;;;0.50;0.50;;;4.80;99.90;;;;;;5123212;27;20039;-76
2023/12/14 10:17:22;;;;;;;0.77;0.70;;;5.00;99.90;;;;;;5129785;27;20511;-80
2023/12/14 10:19:48;;;;;;;;;;;4.90;99.90;;;;;;5122742;27;20399;-77
2023/12/14 10:22:17;;;;;;;0.50;0.50;;;4.80;99.90;;;;;;5123234;27;19927;-79
2023/12/14 10:24:47;;;;;;;0.40;0.40;;;4.80;99.90;;;;;;5111198;27;20034;-79
2023/12/14 10:27:15;;;;;;;0.80;0.80;;;5.40;99.90;;;;;;5108490;28;20078;-77
2023/12/14 10:29:41;;;;;;;1.88;1.75;;;4.80;99.90;;;;;;5122302;27;20039;-77
2023/12/14 10:32:08;;;;;;;0.50;0.50;;;4.90;99.90;;;;;;5121465;28;20084;-78
2023/12/14 10:34:35;;;;;;;0.50;0.50;;;5.00;99.90;;;;;;5120598;27;20027;-80
2023/12/14 10:37:04;;;;;;;0.50;0.50;;;5.00;99.90;;;;;;5126947;27;20424;-79
2023/12/14 10:39:31;;;;;;;0.52;0.52;;;5.10;99.90;;;;;;5121722;27;20376;-76
2023/12/14 10:41:58;;;;;;;0.40;0.40;;;5.10;99.90;;;;;;5112661;27;20042;-76
2023/12/14 10:44:27;;;;;;;0.50;0.50;;;5.30;99.90;;;;;;5133387;27;20496;-78
2023/12/14 10:46:58;;;;;;;0.60;0.60;;;5.20;99.90;;;;;;5122485;27;20070;-81
2023/12/14 10:49:26;;;;;;;0.60;0.60;;;5.50;99.90;;;;;;5132140;27;20047;-78
2023/12/14 10:51:55;;;;;;;0.40;0.40;;;5.40;99.90;;;;;;5123757;27;20035;-76
2023/12/14 10:54:23;;;;;;;0.50;0.50;;;5.50;99.90;;;;;;5127280;27;20495;-79
2023/12/14 10:56:48;;;;;;;0.82;0.82;;;5.60;99.90;;;;;;5124012;28;20118;-76
2023/12/14 10:59:17;;;;;;;0.50;0.50;;;5.60;99.90;;;;;;5128448;27;20188;-76
2023/12/14 11:01:43;;;;;;;0.50;0.50;;;5.80;99.90;;;;;;5125661;27;20078;-78
2023/12/14 11:04:14;;;;;;;0.40;0.40;;;5.80;99.90;;;;;;5115612;27;20084;-75
2023/12/14 11:06:42;;;;;;;0.60;0.60;;;5.80;99.90;;;;;;5119722;27;20111;-79
2023/12/14 11:09:10;;;;;;;0.93;0.93;;;5.80;99.90;;;;;;5128576;27;20065;-77
2023/12/14 11:11:57;;;;;;;1.88;1.17;;;5.80;99.90;;;;;;5137188;27;20043;-78
2023/12/14 11:14:27;;;;;;;0.50;0.50;;;5.90;99.90;;;;;;5111935;27;20039;-76
2023/12/14 11:17:03;;;;;;;0.50;0.50;;;6.00;99.90;;;;;;5136179;27;20360;-78
2023/12/14 11:19:29;;;;;;;0.32;0.32;;;6.00;99.90;;;;;;5122730;27;20158;-80
2023/12/14 11:22:07;;;;;;;0.40;0.40;;;6.00;99.90;;;;;;5141643;27;20043;-77
2023/12/14 11:24:35;;;;;;;0.80;0.80;;;6.10;99.90;;;;;;5136251;27;20046;-78
2023/12/14 11:27:06;;;;;;;1.42;1.42;;;6.30;99.90;;;;;;5131532;27;20130;-76
2023/12/14 11:29:39;;;;;;;1.13;1.02;;;6.20;99.90;;;;;;5139140;27;20066;-78
2023/12/14 11:32:06;;;;;;;1.27;1.00;;;6.20;99.90;;;;;;5120330;27;20054;-78
2023/12/14 11:34:34;;;;;;;0.50;0.50;;;6.10;99.90;;;;;;5137948;27;20047;-81
2023/12/14 11:37:00;;;;;;;0.68;0.68;;;6.00;99.90;;;;;;5101521;27;20078;-80
2023/12/14 11:39:30;;;;;;;0.50;0.50;;;6.10;99.90;;;;;;5131821;27;20081;-79
2023/12/14 11:42:03;;;;;;;0.73;0.73;;;6.10;99.90;;;;;;5117699;27;20781;-79
2023/12/14 11:44:30;;;;;;;3.15;0.75;;;6.20;99.90;;;;;;5114407;27;20042;-79
2023/12/14 11:46:56;;;;;;;1.50;1.48;;;6.20;99.90;;;;;;5124123;27;20368;-79
2023/12/14 11:49:28;;;;;;;;;;;6.10;99.90;;;;;;5113705;27;20088;-81
2023/12/14 11:51:57;;;;;;;0.40;0.40;;;6.10;99.90;;;;;;5101038;27;19964;-78
2023/12/14 11:54:23;;;;;;;0.70;0.70;;;6.10;99.90;;;;;;5123389;27;20504;-76
2023/12/14 11:56:49;;;;;;;1.90;1.73;;;6.00;99.90;;;;;;5109713;27;20031;-79
2023/12/14 11:59:17;;;;;;;0.93;0.93;;;6.20;99.90;;;;;;5124139;27;20035;-82
2023/12/14 12:01:56;;;;;;;0.65;0.65;;;6.00;99.90;;;;;;5124698;27;20039;-83
2023/12/14 12:04:23;;;;;;;1.58;1.33;;;6.00;99.90;;;;;;5130372;27;20693;-82
2023/12/14 12:06:49;;;;;;;0.90;0.90;;;5.90;99.90;;;;;;5096474;27;20031;-80
2023/12/14 12:09:36;;;;;;;0.40;0.40;;;5.80;99.90;;;;;;5128863;27;20044;-81
2023/12/14 12:12:05;;;;;;;0.77;0.77;;;5.90;99.90;;;;;;5118703;27;20035;-81
2023/12/14 12:14:30;;;;;;;0.70;0.70;;;5.90;99.90;;;;;;5134487;27;20039;-82
2023/12/14 12:16:56;;;;;;;1.05;0.95;;;5.80;99.90;;;;;;5128005;27;20392;-79
2023/12/14 12:19:22;;;;;;;1.15;1.15;;;5.80;99.90;;;;;;5112082;27;20047;-78
2023/12/14 12:21:47;;;;;;;0.50;0.50;;;5.80;99.90;;;;;;5129291;27;20180;-82
2023/12/14 12:24:13;;;;;;;1.52;0.98;;;5.80;99.90;;;;;;5129464;27;20033;-81
2023/12/14 12:26:39;;;;;;;2.90;2.80;;;5.90;99.90;;;;;;5129456;27;20031;-79
2023/12/14 12:29:06;;;;;;;1.25;1.23;;;5.80;99.90;;;;;;5115487;27;20133;-81
2023/12/14 12:31:33;;;;;;;9.68;2.60;;;5.90;99.90;;;;;;5111968;27;20058;-78
2023/12/14 12:33:59;;;;;;;1.08;1.08;;;5.90;99.90;;;;;;5109436;27;20058;-79
2023/12/14 12:36:24;;;;;;;0.60;0.60;;;5.80;99.90;;;;;;5095779;27;20046;-80
2023/12/14 12:38:51;;;;;;;0.40;0.40;;;5.80;99.90;;;;;;5122464;27;20054;-78
2023/12/14 12:41:17;;;;;;;2.05;1.95;;;5.80;99.90;;;;;;5138761;27;20113;-78
2023/12/14 12:43:43;;;;;;;0.90;0.90;;;5.60;99.90;;;;;;5114365;27;20039;-79
2023/12/14 12:46:09;;;;;;;0.60;0.60;;;5.80;99.90;;;;;;5110359;27;20103;-78
2023/12/14 12:48:36;;;;;;;0.88;0.88;;;5.80;99.90;;;;;;5108908;27;20122;-77
2023/12/14 12:51:02;;;;;;;1.33;1.23;;;5.70;99.90;;;;;;5095293;27;20055;-81
2023/12/14 12:53:27;;;;;;;2.13;2.03;;;5.70;99.90;;;;;;5099411;27;20130;-79
2023/12/14 12:55:54;;;;;;;0.70;0.70;;;5.70;99.90;;;;;;5133742;27;20087;-78